createdAt,value
2023-01-26T00:01:23.999Z,97983.84
2023-01-26T00:06:27.488Z,97978.13
2023-01-26T00:11:31.381Z,97968.63
2023-01-26T00:16:36.004Z,97971.31
2023-01-26T00:21:39.411Z,97964.56
2023-01-26T00:26:42.930Z,97968.34
2023-01-26T00:31:47.758Z,97964.59
2023-01-26T00:36:51.230Z,97961.56
2023-01-26T00:42:10.972Z,97961.81
2023-01-26T00:47:16.092Z,97943.88
2023-01-26T00:52:19.477Z,97946.31
2023-01-26T00:57:22.938Z,97940.53
2023-01-26T01:02:27.871Z,97942.66
2023-01-26T01:07:31.693Z,97948.03
2023-01-26T01:12:36.767Z,97953.94
2023-01-26T01:17:41.770Z,97950.16
2023-01-26T01:22:45.126Z,97938.97
2023-01-26T01:27:48.438Z,97942.88
2023-01-26T01:32:53.581Z,97929.03
2023-01-26T01:37:56.982Z,97924.81
2023-01-26T01:43:00.307Z,97922.56
2023-01-26T01:48:08.923Z,97915.81
2023-01-26T01:53:18.738Z,97909.16
2023-01-26T01:58:22.772Z,97895.91
2023-01-26T02:03:29.977Z,97896.56
2023-01-26T02:08:37.643Z,97880.94
2023-01-26T02:13:43.245Z,97875.63
2023-01-26T02:18:48.239Z,97879.56
2023-01-26T02:24:06.597Z,97875.78
2023-01-26T02:29:13.127Z,97872.88
2023-01-26T02:34:19.736Z,97870.44
2023-01-26T02:39:36.009Z,97865.03
2023-01-26T02:44:42.884Z,97855.69
2023-01-26T02:49:50.931Z,97856.22
2023-01-26T02:55:13.801Z,97857.97
2023-01-26T03:00:20.648Z,97850.78
2023-01-26T03:05:25.366Z,97853.84
2023-01-26T03:10:29.386Z,97842.03
2023-01-26T03:15:43.819Z,97851.41
2023-01-26T03:21:06.365Z,97842.41
2023-01-26T03:26:28.130Z,97840.41
2023-01-26T03:31:33.098Z,97850.06
2023-01-26T03:36:37.968Z,97843.78
2023-01-26T03:42:03.401Z,97840.22
2023-01-26T03:47:26.019Z,97827.06
2023-01-26T03:52:46.814Z,97837.69
2023-01-26T03:57:51.297Z,97836.59
2023-01-26T04:03:13.650Z,97823.66
2023-01-26T04:08:27.716Z,97821.53
2023-01-26T04:13:53.466Z,97816.91
2023-01-26T04:19:24.192Z,97817.69
2023-01-26T04:24:27.381Z,97816.16
2023-01-26T04:29:33.282Z,97817.50
2023-01-26T04:34:38.097Z,97811.34
2023-01-26T04:39:48.985Z,97804.00
2023-01-26T04:44:53.516Z,97808.53
2023-01-26T04:49:59.199Z,97800.13
2023-01-26T04:55:03.211Z,97794.94
2023-01-26T05:00:10.967Z,97793.41
2023-01-26T05:05:17.034Z,97796.06
2023-01-26T05:10:21.918Z,97798.53
2023-01-26T05:15:48.737Z,97799.13
2023-01-26T05:21:16.819Z,97792.25
2023-01-26T05:26:24.524Z,97791.16
2023-01-26T05:31:38.905Z,97783.69
2023-01-26T05:36:44.677Z,97790.03
2023-01-26T05:41:48.748Z,97794.72
2023-01-26T05:46:56.039Z,97805.00
2023-01-26T05:52:01.216Z,97797.50
2023-01-26T05:57:05.852Z,97804.88
2023-01-26T06:02:13.858Z,97806.97
2023-01-26T06:07:21.710Z,97814.84
2023-01-26T06:12:43.219Z,97816.19
2023-01-26T06:18:10.269Z,97816.09
2023-01-26T06:23:15.459Z,97811.91
2023-01-26T06:28:21.489Z,97826.75
2023-01-26T06:33:25.017Z,97826.72
2023-01-26T06:38:29.764Z,97830.28
2023-01-26T06:43:34.610Z,97831.75
2023-01-26T06:48:39.006Z,97827.84
2023-01-26T06:53:45.447Z,97827.16
2023-01-26T06:59:22.081Z,97826.41
2023-01-26T07:04:51.363Z,97827.25
2023-01-26T07:09:56.304Z,97832.44
2023-01-26T07:14:59.558Z,97826.78
2023-01-26T07:20:03.159Z,97829.56
2023-01-26T07:25:08.863Z,97831.91
2023-01-26T07:30:14.748Z,97833.69
2023-01-26T07:35:18.833Z,97833.88
2023-01-26T07:40:23.967Z,97838.88
2023-01-26T07:45:27.593Z,97829.41
2023-01-26T07:50:31.594Z,97820.28
2023-01-26T07:55:36.595Z,97830.28
2023-01-26T08:00:40.499Z,97822.72
2023-01-26T08:05:44.484Z,97815.84
2023-01-26T08:10:49.590Z,97825.25
2023-01-26T08:15:52.945Z,97822.13
2023-01-26T08:20:56.643Z,97831.22
2023-01-26T08:26:04.237Z,97828.13
2023-01-26T08:31:11.586Z,97830.31
2023-01-26T08:36:16.824Z,97837.66
2023-01-26T08:41:34.696Z,97821.72
2023-01-26T08:46:38.120Z,97827.00
2023-01-26T08:51:41.685Z,97837.22
2023-01-26T08:56:46.500Z,97837.19
2023-01-26T09:01:51.234Z,97839.56
2023-01-26T09:06:54.741Z,97837.38
2023-01-26T09:11:59.575Z,97846.34
2023-01-26T09:17:03.272Z,97847.66
2023-01-26T09:22:06.624Z,97860.16
2023-01-26T09:27:11.487Z,97866.16
2023-01-26T09:32:14.856Z,97866.16
2023-01-26T09:37:18.758Z,97871.28
2023-01-26T09:42:33.812Z,97876.69
2023-01-26T09:47:54.831Z,97861.13
2023-01-26T09:53:03.713Z,97849.25
2023-01-26T09:58:16.722Z,97850.00
2023-01-26T10:03:27.568Z,97854.00
2023-01-26T10:08:31.770Z,97855.28
2023-01-26T10:13:36.665Z,97846.16
2023-01-26T10:18:51.445Z,97837.28
2023-01-26T10:23:55.351Z,97837.66
2023-01-26T10:29:00.761Z,97829.75
2023-01-26T10:34:15.082Z,97829.09
2023-01-26T10:39:19.641Z,97820.91
2023-01-26T10:44:29.911Z,97813.09
2023-01-26T10:49:33.613Z,97804.00
2023-01-26T10:54:38.842Z,97786.94
2023-01-26T10:59:47.861Z,97792.75
2023-01-26T11:05:15.368Z,97794.41
2023-01-26T11:10:28.473Z,97782.06
2023-01-26T11:15:38.431Z,97792.16
2023-01-26T11:20:48.950Z,97778.16
2023-01-26T11:26:25.910Z,97774.63
2023-01-26T11:31:42.560Z,97774.69
2023-01-26T11:36:54.225Z,97760.22
2023-01-26T11:42:14.886Z,97758.94
2023-01-26T11:47:34.154Z,97755.38
2023-01-26T11:52:47.448Z,97756.41
2023-01-26T11:58:06.565Z,97744.16
2023-01-26T12:03:22.279Z,97747.94
2023-01-26T12:08:30.809Z,97737.63
2023-01-26T12:13:39.300Z,97738.28
2023-01-26T12:19:05.607Z,97717.66
2023-01-26T12:24:43.477Z,97714.88
2023-01-26T12:29:52.101Z,97708.56
2023-01-26T12:34:56.842Z,97693.63
2023-01-26T12:40:11.153Z,97687.16
2023-01-26T12:45:19.689Z,97686.69
2023-01-26T12:50:31.871Z,97692.66
2023-01-26T12:55:42.135Z,97700.72
2023-01-26T13:00:54.270Z,97708.97
2023-01-26T13:06:02.083Z,97710.31
2023-01-26T13:11:07.100Z,97699.13
2023-01-26T13:16:33.107Z,97708.41
2023-01-26T13:21:46.090Z,97701.06
2023-01-26T13:26:51.807Z,97709.53
2023-01-26T13:31:56.271Z,97706.81
2023-01-26T13:37:10.187Z,97707.50
2023-01-26T13:42:21.840Z,97709.25
2023-01-26T13:47:31.341Z,97712.34
2023-01-26T13:52:43.601Z,97710.75
2023-01-26T13:57:49.574Z,97722.41
2023-01-26T14:02:53.115Z,97717.97
2023-01-26T14:07:57.874Z,97724.03
2023-01-26T14:13:03.332Z,97723.25
2023-01-26T14:18:06.850Z,97724.19
2023-01-26T14:23:18.844Z,97722.16
2023-01-26T14:28:23.760Z,97734.03
2023-01-26T14:33:28.494Z,97738.06
2023-01-26T14:38:44.104Z,97730.88
2023-01-26T14:43:49.767Z,97737.94
2023-01-26T14:49:01.233Z,97746.22
2023-01-26T14:54:13.927Z,97741.44
2023-01-26T14:59:23.452Z,97738.00
2023-01-26T15:04:33.319Z,97743.84
2023-01-26T15:09:38.164Z,97743.28
2023-01-26T15:14:50.588Z,97746.28
2023-01-26T15:19:53.891Z,97745.78
2023-01-26T15:25:05.549Z,97737.75
2023-01-26T15:30:18.388Z,97751.25
2023-01-26T15:35:25.376Z,97744.00
2023-01-26T15:40:30.416Z,97744.31
2023-01-26T15:45:36.669Z,97751.81
2023-01-26T15:50:40.229Z,97748.25
2023-01-26T15:55:46.413Z,97743.19
2023-01-26T16:00:50.884Z,97752.88
2023-01-26T16:05:54.364Z,97757.50
2023-01-26T16:10:59.734Z,97762.28
2023-01-26T16:16:03.731Z,97764.44
2023-01-26T16:21:18.134Z,97767.22
2023-01-26T16:26:24.349Z,97766.63
2023-01-26T16:31:30.376Z,97764.34
2023-01-26T16:36:33.732Z,97756.03
2023-01-26T16:41:38.401Z,97751.94
2023-01-26T16:46:42.797Z,97764.44
2023-01-26T16:51:46.802Z,97761.88
2023-01-26T16:56:51.482Z,97758.84
2023-01-26T17:01:55.758Z,97754.03
2023-01-26T17:06:59.451Z,97752.78
2023-01-26T17:12:04.659Z,97758.06
2023-01-26T17:17:08.067Z,97754.72
2023-01-26T17:22:11.400Z,97749.28
2023-01-26T17:27:16.265Z,97744.75
2023-01-26T17:32:25.273Z,97751.34
2023-01-26T17:37:30.933Z,97761.13
2023-01-26T17:42:36.379Z,97763.53
2023-01-26T17:47:39.800Z,97762.78
2023-01-26T17:52:43.094Z,97752.91
2023-01-26T17:57:47.780Z,97758.19
2023-01-26T18:02:51.129Z,97757.75
2023-01-26T18:07:54.350Z,97750.38
2023-01-26T18:12:59.216Z,97766.91
2023-01-26T18:18:02.474Z,97760.44
2023-01-26T18:23:05.720Z,97758.38
2023-01-26T18:28:10.501Z,97753.09
2023-01-26T18:33:13.977Z,97757.09
2023-01-26T18:38:17.397Z,97767.75
2023-01-26T18:43:22.116Z,97763.03
2023-01-26T18:48:25.973Z,97766.78
2023-01-26T18:53:29.804Z,97766.69
2023-01-26T18:58:35.241Z,97753.81
2023-01-26T19:03:40.212Z,97755.38
2023-01-26T19:08:43.585Z,97764.03
2023-01-26T19:13:48.927Z,97758.75
2023-01-26T19:18:54.272Z,97763.72
2023-01-26T19:23:59.955Z,97761.91
2023-01-26T19:29:06.535Z,97769.78
2023-01-26T19:34:14.431Z,97769.44
2023-01-26T19:39:17.889Z,97765.72
2023-01-26T19:44:24.251Z,97766.22
2023-01-26T19:49:28.205Z,97764.47
2023-01-26T19:54:32.044Z,97764.97
2023-01-26T19:59:37.796Z,97756.38
2023-01-26T20:04:41.664Z,97751.00
2023-01-26T20:09:45.116Z,97752.06
2023-01-26T20:14:51.723Z,97736.25
2023-01-26T20:19:55.541Z,97747.22
2023-01-26T20:25:01.008Z,97741.00
2023-01-26T20:30:07.286Z,97745.94
2023-01-26T20:35:14.283Z,97739.63
2023-01-26T20:40:18.589Z,97746.19
2023-01-26T20:45:25.187Z,97752.69
2023-01-26T20:50:28.953Z,97739.50
2023-01-26T20:55:33.154Z,97744.38
2023-01-26T21:00:38.527Z,97750.34
2023-01-26T21:05:41.956Z,97756.19
2023-01-26T21:10:47.818Z,97758.09
2023-01-26T21:15:54.117Z,97752.66
2023-01-26T21:20:58.609Z,97754.94
2023-01-26T21:26:05.607Z,97751.59
2023-01-26T21:31:12.413Z,97746.28
2023-01-26T21:36:17.115Z,97745.69
2023-01-26T21:41:39.392Z,97751.00
2023-01-26T21:46:45.934Z,97752.53
2023-01-26T21:52:07.199Z,97754.66
2023-01-26T21:57:26.199Z,97748.97
2023-01-26T22:02:31.086Z,97742.75
2023-01-26T22:07:34.304Z,97746.78
2023-01-26T22:12:37.849Z,97747.72
2023-01-26T22:17:42.877Z,97746.75
2023-01-26T22:22:46.212Z,97745.03
2023-01-26T22:27:49.611Z,97750.88
2023-01-26T22:32:54.448Z,97755.19
2023-01-26T22:37:57.819Z,97746.09
2023-01-26T22:43:01.184Z,97752.81
2023-01-26T22:48:06.974Z,97757.22
2023-01-26T22:53:10.475Z,97749.25
2023-01-26T22:58:14.036Z,97754.75
2023-01-26T23:03:18.867Z,97757.53
2023-01-26T23:08:22.210Z,97759.44
2023-01-26T23:13:25.635Z,97753.34
2023-01-26T23:18:30.809Z,97744.53
2023-01-26T23:23:34.018Z,97734.78
2023-01-26T23:28:39.257Z,97737.78
2023-01-26T23:33:44.342Z,97738.44
2023-01-26T23:38:47.587Z,97738.41
2023-01-26T23:43:50.834Z,97740.19
2023-01-26T23:48:55.958Z,97734.03
2023-01-26T23:53:59.345Z,97746.47
2023-01-26T23:59:02.679Z,97738.75
